Bayfield, Colorado
Current Conditions -  °F | °C
As of 7:53 PM on Saturday 22 Nov 2014 (Local Time) from KDRO Reporting Station
Broken Clouds Broken Clouds  
Wind Chill: 34°   Ceiling: 9500
Heat Index: 38°   Visibility: 10mi
Dew Point: 20°   Wind: 5mph
Humidity: 48%   Direction: 200°SSW
Pressure: 29.89"   Gusts: NA
Location:  37.23°N, 107.6°W
Report Text: KDRO 230253Z AUTO 20004KT 10SM BKN095 BKN110 03/M07 A2989 RMK AO2 SLP142 T00331067 58012
Loading
Personal Weather Stations






























Interactive Weather Map New forecast layout! Learn more

10-Day Weather Forecast

Advertisements
Track Severe Weather on mobile